Time;durP1;ratioP1;P1;durP2;ratioP2;P2;SDS_P1;SDS_P2;PMS_P1;PMS_P2;Temp;Humidity;BMP_temperature;BMP_pressure;BME280_temperature;BME280_humidity;BME280_pressure;Samples;Min_cycle;Max_cycle;Signal;HPM_P1;HPM_P2
2021/12/02 00:02:12;;;;;;;2.63;0.80;;;6.20;99.90;;;;;;5033798;28;20450;-70
2021/12/02 00:04:38;;;;;;;2.07;0.80;;;6.10;99.90;;;;;;5031710;28;20414;-72
2021/12/02 00:07:07;;;;;;;0.60;0.60;;;6.10;99.90;;;;;;5051440;28;20697;-70
2021/12/02 00:09:35;;;;;;;1.00;0.60;;;6.00;99.90;;;;;;5052307;28;20541;-70
2021/12/02 00:12:01;;;;;;;1.00;0.90;;;6.00;99.90;;;;;;5053555;28;20414;-69
2021/12/02 00:14:27;;;;;;;1.03;0.83;;;6.00;99.90;;;;;;5053472;28;20713;-69
2021/12/02 00:17:05;;;;;;;1.37;1.27;;;6.00;99.90;;;;;;5053473;28;20429;-69
2021/12/02 00:22:15;;;;;;;1.03;1.00;;;6.00;99.90;;;;;;5053506;28;20583;-70
2021/12/02 00:24:46;;;;;;;1.60;1.03;;;6.00;99.90;;;;;;5053517;28;21035;-68
2021/12/02 00:27:13;;;;;;;0.80;0.70;;;6.00;99.90;;;;;;5053595;28;20428;-69
2021/12/02 00:29:40;;;;;;;0.90;0.83;;;6.00;99.90;;;;;;5053317;28;20401;-69
2021/12/02 00:32:08;;;;;;;1.10;0.73;;;6.00;99.90;;;;;;5053087;28;20409;-69
2021/12/02 00:34:41;;;;;;;0.80;0.80;;;6.00;99.90;;;;;;5046230;28;20536;-69
2021/12/02 00:37:07;;;;;;;0.60;0.60;;;6.00;99.90;;;;;;5021996;28;20434;-67
2021/12/02 00:39:34;;;;;;;1.30;0.80;;;6.00;99.90;;;;;;5033110;28;20939;-69
2021/12/02 00:42:00;;;;;;;0.97;0.77;;;5.90;99.90;;;;;;5016888;28;20455;-69
2021/12/02 00:44:26;;;;;;;2.43;1.60;;;5.80;99.90;;;;;;5013110;28;20407;-71
2021/12/02 00:46:51;;;;;;;0.70;0.60;;;5.60;99.90;;;;;;5013271;28;20490;-70
2021/12/02 00:49:18;;;;;;;1.63;0.80;;;5.20;99.90;;;;;;5013085;28;20259;-72
2021/12/02 00:51:50;;;;;;;0.63;0.63;;;4.90;99.90;;;;;;5013131;28;20176;-72
2021/12/02 00:54:17;;;;;;;1.30;0.80;;;4.60;99.90;;;;;;5021076;28;20829;-71
2021/12/02 00:56:43;;;;;;;0.60;0.60;;;4.40;99.90;;;;;;5025309;28;20921;-71
2021/12/02 00:59:09;;;;;;;0.60;0.60;;;4.30;99.90;;;;;;5033201;28;20446;-71
2021/12/02 01:01:37;;;;;;;0.60;0.60;;;4.10;99.90;;;;;;5031925;28;20728;-72
2021/12/02 01:04:07;;;;;;;0.60;0.60;;;4.00;99.90;;;;;;5032968;28;20434;-71
2021/12/02 01:06:33;;;;;;;0.83;0.80;;;4.00;99.90;;;;;;5032672;28;20458;-72
2021/12/02 01:08:59;;;;;;;0.60;0.60;;;4.00;99.90;;;;;;5032941;28;20399;-71
2021/12/02 01:11:24;;;;;;;0.70;0.70;;;3.90;99.90;;;;;;5032678;28;20406;-72
2021/12/02 01:13:50;;;;;;;0.60;0.60;;;3.90;99.90;;;;;;5031373;28;20171;-73
2021/12/02 01:16:17;;;;;;;0.70;0.70;;;3.90;99.90;;;;;;5032562;28;20187;-71
2021/12/02 01:18:43;;;;;;;0.80;0.80;;;3.90;99.90;;;;;;5032531;28;20164;-70
2021/12/02 01:21:15;;;;;;;0.80;0.80;;;3.90;99.90;;;;;;5032428;28;20469;-72
2021/12/02 01:23:40;;;;;;;1.27;0.87;;;3.90;99.90;;;;;;5032573;28;20225;-70
2021/12/02 01:26:07;;;;;;;0.60;0.60;;;4.00;99.90;;;;;;5032303;28;20740;-70
2021/12/02 01:28:34;;;;;;;0.70;0.70;;;4.00;99.90;;;;;;5032525;28;20540;-70
2021/12/02 01:31:00;;;;;;;1.87;1.63;;;4.10;99.90;;;;;;5032153;28;20446;-70
2021/12/02 01:33:27;;;;;;;1.33;0.70;;;4.10;99.90;;;;;;5032464;28;21018;-71
2021/12/02 01:36:00;;;;;;;0.70;0.70;;;4.10;99.90;;;;;;5020896;28;20455;-71
2021/12/02 01:39:13;;;;;;;0.60;0.60;;;4.00;99.90;;;;;;5031040;28;20465;-71
2021/12/02 01:41:54;;;;;;;0.60;0.60;;;4.10;99.90;;;;;;5020158;28;20802;-70
2021/12/02 01:44:21;;;;;;;0.70;0.70;;;4.00;99.90;;;;;;5011307;28;20468;-70
2021/12/02 01:46:49;;;;;;;0.70;0.70;;;4.00;99.90;;;;;;5027398;28;20464;-69
2021/12/02 01:49:16;;;;;;;1.00;0.90;;;4.00;99.90;;;;;;5050922;28;20406;-70
2021/12/02 01:55:10;;;;;;;0.60;0.60;;;4.00;99.90;;;;;;5020199;28;20438;-71
2021/12/02 01:57:59;;;;;;;0.67;0.67;;;4.10;99.90;;;;;;5031377;28;20817;-70
2021/12/02 02:00:46;;;;;;;0.83;0.83;;;4.10;99.90;;;;;;5031518;28;20948;-72
2021/12/02 02:03:14;;;;;;;0.63;0.63;;;4.00;99.90;;;;;;5031905;28;20406;-71
2021/12/02 02:05:40;;;;;;;0.60;0.60;;;4.10;99.90;;;;;;5031446;28;20496;-71
2021/12/02 02:08:16;;;;;;;1.00;0.70;;;4.20;99.90;;;;;;5030365;28;20438;-71
2021/12/02 02:10:43;;;;;;;0.60;0.60;;;4.20;99.90;;;;;;5030217;28;20955;-71
2021/12/02 02:13:10;;;;;;;0.73;0.73;;;4.10;99.90;;;;;;5031332;28;20922;-69
2021/12/02 02:15:42;;;;;;;0.60;0.60;;;4.10;99.90;;;;;;5031743;28;20501;-71
2021/12/02 02:18:21;;;;;;;0.60;0.60;;;4.00;99.90;;;;;;5031475;28;20994;-70
2021/12/02 02:21:03;;;;;;;2.93;0.80;;;4.00;99.90;;;;;;5034638;28;20426;-69
2021/12/02 02:23:31;;;;;;;0.60;0.60;;;4.00;99.90;;;;;;5035787;28;20430;-71
2021/12/02 02:25:58;;;;;;;0.93;0.93;;;3.90;99.90;;;;;;5035771;28;20434;-70
2021/12/02 02:28:24;;;;;;;0.60;0.60;;;4.00;99.90;;;;;;5035637;28;20448;-70
2021/12/02 02:30:50;;;;;;;0.60;0.60;;;3.90;99.90;;;;;;5035681;28;20987;-70
2021/12/02 02:33:18;;;;;;;0.60;0.60;;;3.90;99.90;;;;;;5035615;28;20278;-71
2021/12/02 02:35:45;;;;;;;0.60;0.60;;;3.90;99.90;;;;;;5035360;28;20160;-70
2021/12/02 02:38:11;;;;;;;0.90;0.77;;;3.90;99.90;;;;;;5035686;28;20489;-71
2021/12/02 02:40:39;;;;;;;0.60;0.60;;;3.90;99.90;;;;;;5035513;28;21047;-70
2021/12/02 02:43:07;;;;;;;1.27;0.90;;;3.80;99.90;;;;;;5035452;28;20192;-72
2021/12/02 02:45:33;;;;;;;1.37;0.80;;;3.80;99.90;;;;;;5035331;28;20406;-71
2021/12/02 02:47:59;;;;;;;1.30;0.70;;;3.80;99.90;;;;;;5035413;28;20406;-71
2021/12/02 02:50:25;;;;;;;0.60;0.60;;;3.80;99.90;;;;;;5035114;28;20434;-69
2021/12/02 02:53:02;;;;;;;0.60;0.60;;;3.90;99.90;;;;;;5035444;28;20402;-69
2021/12/02 02:55:28;;;;;;;0.60;0.60;;;3.90;99.90;;;;;;5032397;28;20201;-69
2021/12/02 02:58:03;;;;;;;1.23;1.13;;;3.80;99.90;;;;;;5035164;28;20529;-71
2021/12/02 03:00:37;;;;;;;1.37;1.27;;;3.80;99.90;;;;;;5035045;28;20433;-70
2021/12/02 03:03:30;;;;;;;0.80;0.80;;;3.80;99.90;;;;;;5035075;28;20485;-70
2021/12/02 03:06:25;;;;;;;0.60;0.60;;;3.90;99.90;;;;;;5029120;28;20444;-71
2021/12/02 03:08:58;;;;;;;0.60;0.60;;;3.80;99.90;;;;;;5035310;28;20395;-69
2021/12/02 03:11:27;;;;;;;0.70;0.70;;;3.80;99.90;;;;;;5035027;28;20818;-71
2021/12/02 03:13:55;;;;;;;4.10;0.80;;;3.90;99.90;;;;;;5035166;28;20410;-70
2021/12/02 03:16:43;;;;;;;1.47;1.33;;;3.90;99.90;;;;;;5034787;28;20425;-71
2021/12/02 03:19:09;;;;;;;0.70;0.70;;;3.90;99.90;;;;;;5034654;28;20901;-71
2021/12/02 03:21:35;;;;;;;1.00;0.70;;;4.00;99.90;;;;;;5034905;28;20452;-70
2021/12/02 03:24:01;;;;;;;1.97;1.20;;;4.00;99.90;;;;;;5034820;28;20418;-70
2021/12/02 03:26:29;;;;;;;1.23;0.80;;;4.00;99.90;;;;;;5034517;28;20271;-71
2021/12/02 03:28:54;;;;;;;0.60;0.60;;;3.90;99.90;;;;;;5034067;28;20827;-70
2021/12/02 03:31:22;;;;;;;2.20;0.77;;;3.90;99.90;;;;;;5034580;28;20479;-69
2021/12/02 03:33:47;;;;;;;0.60;0.60;;;3.80;99.90;;;;;;5034519;28;20179;-70
2021/12/02 03:36:14;;;;;;;1.80;1.20;;;3.80;99.90;;;;;;5034264;28;20915;-70
2021/12/02 03:38:40;;;;;;;1.53;0.70;;;3.80;99.90;;;;;;5034502;28;20167;-70
2021/12/02 03:41:06;;;;;;;0.70;0.70;;;3.80;99.90;;;;;;5034161;28;20446;-70
2021/12/02 03:43:40;;;;;;;2.60;0.80;;;3.70;99.90;;;;;;5034458;28;20171;-70
2021/12/02 03:46:07;;;;;;;0.80;0.80;;;3.70;99.90;;;;;;5034018;28;20690;-69
2021/12/02 03:48:35;;;;;;;0.60;0.60;;;3.80;99.90;;;;;;5034514;28;20415;-71
2021/12/02 03:51:01;;;;;;;2.93;1.07;;;3.80;99.90;;;;;;5034346;28;20406;-70
2021/12/02 03:53:26;;;;;;;0.80;0.80;;;3.70;99.90;;;;;;5034274;28;20414;-69
2021/12/02 03:55:52;;;;;;;1.23;1.13;;;3.80;99.90;;;;;;5034232;28;20279;-70
2021/12/02 03:58:17;;;;;;;0.60;0.60;;;3.80;99.90;;;;;;5034325;28;20175;-70
2021/12/02 04:00:43;;;;;;;0.60;0.60;;;3.70;99.90;;;;;;5034105;28;20186;-70
2021/12/02 04:03:08;;;;;;;1.67;0.70;;;3.80;99.90;;;;;;5034134;28;20657;-69
2021/12/02 04:05:34;;;;;;;2.50;0.90;;;3.80;99.90;;;;;;5033958;28;20266;-71
2021/12/02 04:07:59;;;;;;;1.37;0.97;;;3.70;99.90;;;;;;5034247;28;20175;-70
2021/12/02 04:10:25;;;;;;;2.70;0.70;;;3.70;99.90;;;;;;5034122;28;20264;-70
2021/12/02 04:13:07;;;;;;;0.70;0.70;;;3.70;99.90;;;;;;5034127;28;20550;-70
2021/12/02 04:15:40;;;;;;;1.03;0.93;;;3.60;99.90;;;;;;5033894;28;20881;-69
2021/12/02 04:18:07;;;;;;;0.70;0.70;;;3.70;99.90;;;;;;5033942;28;20398;-70
2021/12/02 04:20:33;;;;;;;1.93;0.77;;;3.50;99.90;;;;;;5033595;28;20499;-71
2021/12/02 04:22:59;;;;;;;1.17;0.90;;;3.60;99.90;;;;;;5033535;28;20516;-69
2021/12/02 04:25:25;;;;;;;0.63;0.63;;;3.60;99.90;;;;;;5033527;28;20442;-69
2021/12/02 04:27:53;;;;;;;1.90;1.80;;;3.50;99.90;;;;;;5033940;28;20195;-70
2021/12/02 04:30:24;;;;;;;0.70;0.70;;;3.60;99.90;;;;;;5033939;28;20783;-71
2021/12/02 04:32:50;;;;;;;3.80;0.80;;;3.50;99.90;;;;;;5033632;28;20411;-72
2021/12/02 04:35:16;;;;;;;0.70;0.70;;;3.40;99.90;;;;;;5033551;28;20956;-69
2021/12/02 04:37:44;;;;;;;2.53;0.73;;;3.50;99.90;;;;;;5033340;28;20198;-71
2021/12/02 04:40:12;;;;;;;0.80;0.80;;;3.50;99.90;;;;;;5032241;28;20410;-70
2021/12/02 04:42:38;;;;;;;0.60;0.60;;;3.50;99.90;;;;;;5033387;28;20466;-68
2021/12/02 04:45:05;;;;;;;0.70;0.70;;;3.50;99.90;;;;;;5033274;28;20772;-70
2021/12/02 04:47:30;;;;;;;0.70;0.70;;;3.50;99.90;;;;;;5033369;28;20491;-71
2021/12/02 04:49:56;;;;;;;0.60;0.60;;;3.50;99.90;;;;;;5033607;28;20489;-71
2021/12/02 04:52:22;;;;;;;0.60;0.60;;;3.40;99.90;;;;;;5033297;28;20645;-70
2021/12/02 04:54:47;;;;;;;0.80;0.70;;;3.40;99.90;;;;;;5033540;28;20168;-71
2021/12/02 04:57:13;;;;;;;0.83;0.83;;;3.30;99.90;;;;;;5033396;28;20198;-72
2021/12/02 04:59:38;;;;;;;0.60;0.60;;;3.40;99.90;;;;;;5033316;28;20172;-71
2021/12/02 05:02:04;;;;;;;10.97;1.80;;;3.30;99.90;;;;;;5033316;28;20207;-70
2021/12/02 05:04:29;;;;;;;0.80;0.80;;;3.20;99.90;;;;;;5033131;28;20175;-71
2021/12/02 05:06:55;;;;;;;1.03;0.93;;;3.20;99.90;;;;;;5027990;28;20570;-71
2021/12/02 05:09:20;;;;;;;0.60;0.60;;;3.20;99.90;;;;;;5032994;28;20183;-70
2021/12/02 05:11:46;;;;;;;0.87;0.87;;;3.20;99.90;;;;;;5033228;28;20226;-71
2021/12/02 05:14:11;;;;;;;4.20;1.37;;;3.20;99.90;;;;;;5033971;28;20199;-72
2021/12/02 05:16:38;;;;;;;1.10;0.83;;;3.20;99.90;;;;;;5033249;28;20223;-71
2021/12/02 05:19:04;;;;;;;0.60;0.60;;;3.10;99.90;;;;;;5033113;28;20260;-71
2021/12/02 05:21:29;;;;;;;1.00;0.90;;;3.20;99.90;;;;;;5031315;28;20462;-72
2021/12/02 05:23:55;;;;;;;0.90;0.90;;;3.10;99.90;;;;;;5031597;28;20171;-70
2021/12/02 05:26:22;;;;;;;1.90;1.10;;;3.00;99.90;;;;;;5032491;28;20655;-71
2021/12/02 05:28:47;;;;;;;1.00;0.90;;;3.10;99.90;;;;;;5032491;28;20250;-71
2021/12/02 05:31:13;;;;;;;0.90;0.90;;;3.00;99.90;;;;;;5032596;28;20442;-71
2021/12/02 05:33:38;;;;;;;0.70;0.70;;;3.00;99.90;;;;;;5032564;28;20175;-70
2021/12/02 05:36:04;;;;;;;0.63;0.63;;;3.00;99.90;;;;;;5032116;28;20666;-71
2021/12/02 05:38:29;;;;;;;0.80;0.80;;;3.10;99.90;;;;;;5032188;28;20176;-70
2021/12/02 05:40:55;;;;;;;0.70;0.70;;;3.00;99.90;;;;;;5030985;28;20609;-70
2021/12/02 05:43:21;;;;;;;0.80;0.80;;;3.00;99.90;;;;;;5032248;28;20171;-70
2021/12/02 05:45:46;;;;;;;1.00;1.00;;;2.90;99.90;;;;;;5031970;28;20210;-71
2021/12/02 05:48:12;;;;;;;0.80;0.80;;;2.80;99.90;;;;;;5032217;28;20195;-70
2021/12/02 05:50:37;;;;;;;3.83;0.83;;;2.90;99.90;;;;;;5032058;28;20626;-70
2021/12/02 05:53:03;;;;;;;0.90;0.90;;;2.90;99.90;;;;;;5031731;28;20174;-71
2021/12/02 05:55:28;;;;;;;1.33;1.10;;;2.80;99.90;;;;;;5031839;28;20171;-70
2021/12/02 05:57:54;;;;;;;0.60;0.60;;;2.90;99.90;;;;;;5032163;28;20184;-70
2021/12/02 06:00:20;;;;;;;0.70;0.70;;;2.90;99.90;;;;;;5030757;28;20250;-71
2021/12/02 06:02:45;;;;;;;0.83;0.77;;;3.00;99.90;;;;;;5031966;28;20195;-71
2021/12/02 06:05:16;;;;;;;1.53;0.87;;;3.00;99.90;;;;;;5031830;28;20407;-72
2021/12/02 06:07:43;;;;;;;1.03;0.70;;;3.00;99.90;;;;;;5031694;28;20207;-68
2021/12/02 06:10:09;;;;;;;0.60;0.60;;;3.00;99.90;;;;;;5031848;28;21076;-70
2021/12/02 06:12:34;;;;;;;0.60;0.60;;;3.00;99.90;;;;;;5031845;28;20413;-69
2021/12/02 06:14:59;;;;;;;0.60;0.60;;;3.10;99.90;;;;;;5031674;28;20174;-70
2021/12/02 06:17:25;;;;;;;0.70;0.70;;;3.00;99.90;;;;;;5032898;28;20192;-73
2021/12/02 06:19:50;;;;;;;2.10;1.10;;;3.00;99.90;;;;;;5034281;28;20664;-70
2021/12/02 06:22:16;;;;;;;0.90;0.90;;;3.10;99.90;;;;;;5032733;28;20654;-69
2021/12/02 06:24:43;;;;;;;0.80;0.80;;;3.10;99.90;;;;;;5031565;28;20186;-71
2021/12/02 06:27:09;;;;;;;0.63;0.63;;;3.00;99.90;;;;;;5030363;28;20199;-69
2021/12/02 06:29:36;;;;;;;0.90;0.80;;;3.00;99.90;;;;;;5031563;28;20428;-69
2021/12/02 06:32:03;;;;;;;0.70;0.70;;;3.10;99.90;;;;;;5031924;28;20418;-70
2021/12/02 06:34:29;;;;;;;0.70;0.70;;;3.00;99.90;;;;;;5031599;28;20406;-70
2021/12/02 06:36:55;;;;;;;0.80;0.80;;;3.10;99.90;;;;;;5032433;28;20437;-71
2021/12/02 06:39:20;;;;;;;0.70;0.70;;;3.00;99.90;;;;;;5032415;28;20414;-71
2021/12/02 06:41:46;;;;;;;0.70;0.70;;;3.00;99.90;;;;;;5031177;28;20258;-72
2021/12/02 06:44:13;;;;;;;0.70;0.70;;;2.90;99.90;;;;;;5033279;28;20171;-71
2021/12/02 06:46:38;;;;;;;0.80;0.80;;;2.90;99.90;;;;;;5032472;28;20183;-71
2021/12/02 06:49:04;;;;;;;2.60;0.90;;;2.90;99.90;;;;;;5032321;28;20418;-72
2021/12/02 06:51:29;;;;;;;0.70;0.70;;;2.90;99.90;;;;;;5033369;28;20172;-70
2021/12/02 06:53:56;;;;;;;0.70;0.67;;;2.90;99.90;;;;;;5033218;28;20221;-70
2021/12/02 06:56:21;;;;;;;1.03;0.93;;;2.90;99.90;;;;;;5033568;28;20184;-71
2021/12/02 06:58:47;;;;;;;2.00;0.80;;;2.80;99.90;;;;;;5036002;28;20410;-72
2021/12/02 07:01:12;;;;;;;2.70;1.10;;;2.80;99.90;;;;;;5036111;28;20195;-72
2021/12/02 07:03:38;;;;;;;1.20;0.80;;;2.80;99.90;;;;;;5036815;28;20190;-71
2021/12/02 07:06:04;;;;;;;1.17;1.17;;;2.70;99.90;;;;;;5039231;28;20210;-72
2021/12/02 07:08:31;;;;;;;1.00;1.00;;;2.70;99.90;;;;;;5025900;28;20180;-71
2021/12/02 07:10:58;;;;;;;1.53;0.87;;;2.70;99.90;;;;;;5042068;28;20529;-70
2021/12/02 07:13:24;;;;;;;1.83;1.73;;;2.70;99.90;;;;;;5030732;28;20421;-71
2021/12/02 07:15:53;;;;;;;1.80;1.07;;;2.70;99.90;;;;;;5022045;28;20462;-70
2021/12/02 07:18:19;;;;;;;0.60;0.60;;;2.70;99.90;;;;;;5015237;28;20160;-72
2021/12/02 07:20:47;;;;;;;0.90;0.83;;;2.80;99.90;;;;;;5014776;28;20442;-72
2021/12/02 07:23:18;;;;;;;1.23;0.90;;;2.80;99.90;;;;;;5013834;28;20177;-72
2021/12/02 07:25:45;;;;;;;1.10;1.00;;;2.80;99.90;;;;;;5017549;28;20418;-71
2021/12/02 07:28:12;;;;;;;1.07;1.07;;;2.80;99.90;;;;;;5026320;28;20414;-70
2021/12/02 07:30:38;;;;;;;0.80;0.80;;;2.80;99.90;;;;;;5034610;28;20394;-71
2021/12/02 07:33:05;;;;;;;2.40;1.10;;;2.80;99.90;;;;;;5039055;28;20421;-71
2021/12/02 07:35:31;;;;;;;0.60;0.60;;;2.80;99.90;;;;;;5034052;28;20413;-70
2021/12/02 07:37:59;;;;;;;2.50;0.93;;;2.80;99.90;;;;;;5034447;28;20407;-70
2021/12/02 07:40:26;;;;;;;0.70;0.70;;;2.70;99.90;;;;;;5034453;28;20262;-69
2021/12/02 07:42:53;;;;;;;0.80;0.80;;;2.70;99.90;;;;;;5034329;28;20456;-71
2021/12/02 07:45:20;;;;;;;1.00;0.90;;;2.70;99.90;;;;;;5034290;28;20418;-70
2021/12/02 07:47:46;;;;;;;0.80;0.80;;;2.80;99.90;;;;;;5034080;28;20803;-71
2021/12/02 07:50:14;;;;;;;1.00;0.90;;;2.80;99.90;;;;;;5034310;28;20413;-70
2021/12/02 07:52:45;;;;;;;1.37;0.83;;;2.80;99.90;;;;;;5034502;28;20523;-70
2021/12/02 07:55:13;;;;;;;0.60;0.60;;;2.90;99.90;;;;;;5034550;28;20407;-69
2021/12/02 07:57:40;;;;;;;0.80;0.80;;;2.90;99.90;;;;;;5034719;28;20423;-70
2021/12/02 08:00:07;;;;;;;0.70;0.70;;;2.90;99.90;;;;;;5033879;28;20403;-71
2021/12/02 08:02:34;;;;;;;1.20;1.10;;;2.90;99.90;;;;;;5021473;28;20464;-69
2021/12/02 08:04:59;;;;;;;0.83;0.83;;;3.00;99.90;;;;;;5033914;28;20780;-69
2021/12/02 08:07:25;;;;;;;0.80;0.80;;;2.90;99.90;;;;;;5022980;28;20431;-69
2021/12/02 08:09:51;;;;;;;1.00;0.90;;;2.90;99.90;;;;;;5013860;28;20458;-69
2021/12/02 08:12:16;;;;;;;1.27;1.17;;;2.90;99.90;;;;;;5017032;28;20920;-70
2021/12/02 08:14:42;;;;;;;0.70;0.70;;;3.00;99.90;;;;;;5033157;28;20658;-74
2021/12/02 08:17:07;;;;;;;4.40;1.20;;;3.10;99.90;;;;;;5033749;28;20192;-70
2021/12/02 08:19:33;;;;;;;0.70;0.70;;;3.00;99.90;;;;;;5026255;28;20234;-71
2021/12/02 08:21:58;;;;;;;1.27;1.20;;;2.90;99.90;;;;;;5025579;28;20558;-71
2021/12/02 08:24:25;;;;;;;0.60;0.60;;;3.00;99.90;;;;;;5013870;28;20165;-69
2021/12/02 08:26:52;;;;;;;1.00;0.73;;;2.90;99.90;;;;;;5022561;28;20191;-70
2021/12/02 08:29:17;;;;;;;0.90;0.70;;;3.00;99.90;;;;;;5031732;28;20484;-70
2021/12/02 08:31:43;;;;;;;0.70;0.70;;;3.00;99.90;;;;;;5033224;28;20406;-72
2021/12/02 08:34:08;;;;;;;0.83;0.83;;;2.90;99.90;;;;;;5033537;28;20206;-69
2021/12/02 08:36:44;;;;;;;1.20;1.00;;;2.90;99.90;;;;;;5033668;28;20275;-69
2021/12/02 08:39:16;;;;;;;0.73;0.73;;;2.90;99.90;;;;;;5034815;28;20179;-73
2021/12/02 08:41:45;;;;;;;0.67;0.67;;;2.90;99.90;;;;;;5035825;28;20508;-69
2021/12/02 08:44:11;;;;;;;0.80;0.80;;;2.80;99.90;;;;;;5033587;28;20414;-69
2021/12/02 08:46:36;;;;;;;1.47;1.10;;;2.70;99.90;;;;;;5033474;28;20821;-69
2021/12/02 08:49:03;;;;;;;0.80;0.80;;;2.80;99.90;;;;;;5033508;28;20167;-69
2021/12/02 08:51:28;;;;;;;1.33;1.23;;;2.80;99.90;;;;;;5033609;28;20171;-70
2021/12/02 08:53:54;;;;;;;1.20;1.10;;;2.80;99.90;;;;;;5033436;28;20897;-70
2021/12/02 08:56:20;;;;;;;0.80;0.80;;;2.70;99.90;;;;;;5023557;28;20199;-70
2021/12/02 08:58:45;;;;;;;3.83;2.20;;;2.80;99.90;;;;;;5020508;28;20203;-68
2021/12/02 09:01:12;;;;;;;1.10;1.00;;;2.80;99.90;;;;;;5031787;28;20209;-71
2021/12/02 09:03:38;;;;;;;1.00;1.00;;;2.70;99.90;;;;;;5033523;28;20245;-72
2021/12/02 09:06:08;;;;;;;0.60;0.60;;;2.70;99.90;;;;;;5032899;28;20863;-70
2021/12/02 09:08:34;;;;;;;1.70;0.87;;;2.60;99.90;;;;;;5033090;28;20795;-72
2021/12/02 09:10:59;;;;;;;0.70;0.70;;;2.50;99.90;;;;;;5032845;28;20411;-70
2021/12/02 09:13:25;;;;;;;1.10;1.03;;;2.50;99.90;;;;;;5033354;28;20183;-70
2021/12/02 09:15:53;;;;;;;1.97;1.43;;;2.60;99.90;;;;;;5032628;28;20608;-71
2021/12/02 09:18:18;;;;;;;1.40;1.30;;;2.60;99.90;;;;;;5021836;28;20195;-72
2021/12/02 09:20:44;;;;;;;0.90;0.90;;;2.50;99.90;;;;;;5033973;28;20817;-72
2021/12/02 09:23:09;;;;;;;1.27;0.80;;;2.50;99.90;;;;;;5033188;28;20199;-71
2021/12/02 09:25:35;;;;;;;0.67;0.67;;;2.60;99.90;;;;;;5012512;28;20628;-71
2021/12/02 09:28:01;;;;;;;0.70;0.70;;;2.50;99.90;;;;;;5030467;28;20178;-70
2021/12/02 09:30:28;;;;;;;0.60;0.60;;;2.60;99.90;;;;;;5032013;28;20218;-70
2021/12/02 09:32:53;;;;;;;0.83;0.83;;;2.60;99.90;;;;;;5032303;28;20868;-70
2021/12/02 09:35:20;;;;;;;0.70;0.70;;;2.60;99.90;;;;;;5031555;28;20689;-71
2021/12/02 09:37:45;;;;;;;0.60;0.60;;;2.60;99.90;;;;;;5024656;28;20567;-70
2021/12/02 09:40:13;;;;;;;0.80;0.80;;;2.50;99.90;;;;;;5028611;28;20422;-70
2021/12/02 09:42:40;;;;;;;0.73;0.73;;;2.50;99.90;;;;;;5032651;28;20217;-69
2021/12/02 09:45:06;;;;;;;2.10;0.87;;;2.50;99.90;;;;;;5030648;28;20426;-69
2021/12/02 09:47:36;;;;;;;0.70;0.70;;;2.50;99.90;;;;;;5032218;28;20525;-70
2021/12/02 09:50:09;;;;;;;0.60;0.60;;;2.50;99.90;;;;;;5031520;28;20509;-69
2021/12/02 09:52:39;;;;;;;0.90;0.90;;;2.60;99.90;;;;;;5032140;28;20485;-71
2021/12/02 09:55:11;;;;;;;0.73;0.73;;;2.70;99.90;;;;;;5031780;28;20928;-70
2021/12/02 09:57:41;;;;;;;0.60;0.60;;;2.70;99.90;;;;;;5032094;28;20517;-71
2021/12/02 10:00:14;;;;;;;0.73;0.73;;;2.80;99.90;;;;;;5031900;28;20516;-70
2021/12/02 10:02:49;;;;;;;1.07;0.97;;;2.80;99.90;;;;;;5031964;28;20452;-69
2021/12/02 10:05:24;;;;;;;0.70;0.70;;;2.80;99.90;;;;;;5031475;28;20437;-69
2021/12/02 10:08:00;;;;;;;1.10;0.87;;;2.70;99.90;;;;;;5032493;28;20429;-70
2021/12/02 10:10:33;;;;;;;0.60;0.60;;;2.80;99.90;;;;;;5031858;28;20409;-70
2021/12/02 10:13:26;;;;;;;0.90;0.90;;;2.90;99.90;;;;;;5031594;28;20429;-70
2021/12/02 10:16:13;;;;;;;1.10;1.00;;;2.90;99.90;;;;;;5025378;28;20824;-74
2021/12/02 10:18:52;;;;;;;0.80;0.70;;;2.90;99.90;;;;;;5031679;28;20909;-70
2021/12/02 10:21:26;;;;;;;0.60;0.60;;;2.90;99.90;;;;;;5031542;28;20503;-71
2021/12/02 10:23:53;;;;;;;0.90;0.90;;;2.90;99.90;;;;;;5030598;28;20418;-69
2021/12/02 10:26:20;;;;;;;1.00;1.00;;;3.00;99.90;;;;;;5031643;28;20439;-70
2021/12/02 10:28:48;;;;;;;0.70;0.70;;;3.00;99.90;;;;;;5032056;28;21150;-70
2021/12/02 10:31:19;;;;;;;0.63;0.63;;;2.90;99.90;;;;;;5031959;28;20459;-69
2021/12/02 10:33:50;;;;;;;1.53;1.10;;;2.90;99.90;;;;;;5027287;28;20430;-72
2021/12/02 10:36:39;;;;;;;0.70;0.70;;;2.90;99.90;;;;;;5012129;28;20446;-69
2021/12/02 10:39:17;;;;;;;0.80;0.80;;;3.00;99.90;;;;;;5031542;28;20421;-70
2021/12/02 10:41:45;;;;;;;1.20;1.10;;;3.00;99.90;;;;;;5035700;28;20964;-70
2021/12/02 10:44:15;;;;;;;0.60;0.60;;;3.00;99.90;;;;;;5036076;28;20451;-70
2021/12/02 10:47:06;;;;;;;0.80;0.70;;;3.00;99.90;;;;;;5035527;28;20446;-71
2021/12/02 10:49:44;;;;;;;1.40;1.30;;;3.00;99.90;;;;;;5035688;28;20900;-72
2021/12/02 10:52:17;;;;;;;1.23;1.13;;;3.00;99.90;;;;;;5036016;28;20418;-72
2021/12/02 10:54:49;;;;;;;0.90;0.90;;;3.10;99.90;;;;;;5036020;28;20809;-69
2021/12/02 10:57:19;;;;;;;1.40;1.20;;;3.20;99.90;;;;;;5035513;28;20434;-70
2021/12/02 10:59:48;;;;;;;0.80;0.80;;;3.30;99.90;;;;;;5035173;28;20890;-72
2021/12/02 11:02:29;;;;;;;0.60;0.60;;;3.30;99.90;;;;;;5035242;28;20460;-70
2021/12/02 11:04:57;;;;;;;0.70;0.70;;;3.40;99.90;;;;;;5034999;28;20406;-69
2021/12/02 11:07:35;;;;;;;0.70;0.70;;;3.30;99.90;;;;;;5035227;28;20513;-69
2021/12/02 11:10:04;;;;;;;6.00;1.10;;;3.30;99.90;;;;;;5034950;28;20404;-70
2021/12/02 11:12:35;;;;;;;0.90;0.90;;;3.40;99.90;;;;;;5024241;28;20942;-69
2021/12/02 11:15:23;;;;;;;0.80;0.80;;;3.60;99.90;;;;;;5033445;28;20422;-69
2021/12/02 11:18:07;;;;;;;1.10;0.63;;;3.70;99.90;;;;;;5025869;28;20439;-69
2021/12/02 11:20:37;;;;;;;0.70;0.70;;;3.70;99.90;;;;;;5015092;28;20784;-70
2021/12/02 11:23:11;;;;;;;1.23;0.70;;;3.50;99.90;;;;;;5025835;28;20484;-69
2021/12/02 11:25:57;;;;;;;1.33;1.13;;;3.40;99.90;;;;;;5014942;28;20408;-70
2021/12/02 11:28:25;;;;;;;0.60;0.60;;;3.40;99.90;;;;;;5018578;28;20411;-69
2021/12/02 11:30:53;;;;;;;2.90;1.50;;;3.30;99.90;;;;;;5029617;28;20927;-69
2021/12/02 11:33:19;;;;;;;2.00;0.90;;;3.50;99.90;;;;;;5034228;28;20446;-69
2021/12/02 11:35:47;;;;;;;1.27;1.17;;;3.40;99.90;;;;;;5034296;28;20500;-70
2021/12/02 11:38:15;;;;;;;0.90;0.90;;;3.40;99.90;;;;;;5034346;28;20456;-70
2021/12/02 11:41:02;;;;;;;0.97;0.90;;;3.40;99.90;;;;;;5025164;28;20398;-70
2021/12/02 11:43:37;;;;;;;0.87;0.87;;;3.40;99.90;;;;;;5031744;28;20795;-70
2021/12/02 11:46:05;;;;;;;1.53;0.80;;;3.50;99.90;;;;;;5034363;28;20826;-71
2021/12/02 11:48:39;;;;;;;1.43;1.00;;;3.50;99.90;;;;;;5033141;28;20407;-70
2021/12/02 11:51:11;;;;;;;1.00;0.87;;;3.50;99.90;;;;;;5033815;28;20894;-70
2021/12/02 11:53:36;;;;;;;0.60;0.60;;;3.50;99.90;;;;;;5034054;28;20406;-70
2021/12/02 11:56:08;;;;;;;1.13;0.83;;;3.60;99.90;;;;;;5034226;28;20415;-71
2021/12/02 11:58:35;;;;;;;0.60;0.60;;;3.50;99.90;;;;;;5034281;28;20207;-74
2021/12/02 12:01:01;;;;;;;0.80;0.80;;;3.60;99.90;;;;;;5034163;28;20394;-72
2021/12/02 12:03:41;;;;;;;0.93;0.80;;;3.50;99.90;;;;;;5034071;28;20441;-73
2021/12/02 12:06:15;;;;;;;1.20;1.10;;;3.60;99.90;;;;;;5033846;28;20761;-71
2021/12/02 12:08:49;;;;;;;0.83;0.83;;;3.60;99.90;;;;;;5033949;28;20421;-70
2021/12/02 12:11:21;;;;;;;0.70;0.70;;;3.60;99.90;;;;;;5032699;28;20482;-70
2021/12/02 12:13:50;;;;;;;1.47;0.70;;;3.50;99.90;;;;;;5026939;28;20435;-70
2021/12/02 12:16:26;;;;;;;0.60;0.60;;;3.40;99.90;;;;;;5015129;28;21048;-71
2021/12/02 12:18:53;;;;;;;0.67;0.67;;;3.40;99.90;;;;;;5020137;28;20414;-72
2021/12/02 12:21:33;;;;;;;1.10;0.80;;;3.40;99.90;;;;;;5033434;28;20450;-71
2021/12/02 12:24:02;;;;;;;0.70;0.70;;;3.40;99.90;;;;;;5033554;28;20818;-71
2021/12/02 12:26:32;;;;;;;0.70;0.70;;;3.50;99.90;;;;;;5033400;28;20458;-70
2021/12/02 12:29:03;;;;;;;0.60;0.60;;;3.50;99.90;;;;;;5033317;28;20901;-71
2021/12/02 12:31:30;;;;;;;1.13;0.80;;;3.60;99.90;;;;;;5021774;28;20857;-70
2021/12/02 12:33:58;;;;;;;0.90;0.90;;;3.60;99.90;;;;;;5032960;28;20438;-71
2021/12/02 12:36:51;;;;;;;0.67;0.67;;;3.70;99.90;;;;;;5033199;28;20434;-72
2021/12/02 12:39:23;;;;;;;1.57;0.80;;;3.70;99.90;;;;;;5030156;28;20422;-71
2021/12/02 12:42:12;;;;;;;0.93;0.93;;;3.70;99.90;;;;;;5032957;28;20868;-71
2021/12/02 12:44:55;;;;;;;0.90;0.90;;;3.80;99.90;;;;;;5033008;28;20944;-70
2021/12/02 12:47:40;;;;;;;0.70;0.70;;;3.80;99.90;;;;;;5033131;28;20422;-70
2021/12/02 12:50:32;;;;;;;1.37;1.27;;;3.80;99.90;;;;;;5033097;28;20506;-70
2021/12/02 12:53:07;;;;;;;1.53;0.97;;;3.80;99.90;;;;;;5033163;28;20763;-70
2021/12/02 12:55:37;;;;;;;0.60;0.60;;;3.90;99.90;;;;;;5032808;28;20920;-70
2021/12/02 12:58:16;;;;;;;0.70;0.70;;;3.90;99.90;;;;;;5032636;28;20749;-72
2021/12/02 13:00:44;;;;;;;0.70;0.70;;;3.80;99.90;;;;;;5031077;28;20581;-70
2021/12/02 13:03:40;;;;;;;1.20;1.10;;;3.70;99.90;;;;;;5031176;28;20458;-69
2021/12/02 13:06:12;;;;;;;1.07;0.97;;;3.70;99.90;;;;;;5031260;28;20432;-70
2021/12/02 13:08:51;;;;;;;0.70;0.70;;;3.70;99.90;;;;;;5047342;28;20417;-72
2021/12/02 13:11:25;;;;;;;1.90;1.40;;;3.70;99.90;;;;;;5051181;28;20507;-71
2021/12/02 13:13:54;;;;;;;2.40;0.90;;;3.80;99.90;;;;;;5031483;28;20432;-71
2021/12/02 13:16:20;;;;;;;1.37;1.00;;;3.70;99.90;;;;;;5016216;28;20447;-73